sensor_id;sensor_type;location;lat;lon;timestamp;temperature;humidity
10451;DHT22;5273;51.290;6.918;2022-12-18T00:00:44;-2.40;99.90
10451;DHT22;5273;51.290;6.918;2022-12-18T00:03:12;-2.40;99.90
10451;DHT22;5273;51.290;6.918;2022-12-18T00:05:47;-2.50;99.90
10451;DHT22;5273;51.290;6.918;2022-12-18T00:08:14;-2.40;99.90
10451;DHT22;5273;51.290;6.918;2022-12-18T00:10:41;-2.40;99.90
10451;DHT22;5273;51.290;6.918;2022-12-18T00:13:08;-1.30;99.90
10451;DHT22;5273;51.290;6.918;2022-12-18T00:15:35;-2.40;99.90
10451;DHT22;5273;51.290;6.918;2022-12-18T00:18:02;-2.40;99.90
10451;DHT22;5273;51.290;6.918;2022-12-18T00:20:29;-3.10;99.90
10451;DHT22;5273;51.290;6.918;2022-12-18T00:22:57;-2.50;99.90
10451;DHT22;5273;51.290;6.918;2022-12-18T00:25:24;-2.50;99.90
10451;DHT22;5273;51.290;6.918;2022-12-18T00:27:51;-2.50;99.90
10451;DHT22;5273;51.290;6.918;2022-12-18T00:30:18;-2.50;99.90
10451;DHT22;5273;51.290;6.918;2022-12-18T00:32:44;-2.50;99.90
10451;DHT22;5273;51.290;6.918;2022-12-18T00:35:11;-2.40;99.90
10451;DHT22;5273;51.290;6.918;2022-12-18T00:37:38;-2.40;99.90
10451;DHT22;5273;51.290;6.918;2022-12-18T00:40:08;-1.20;99.90
10451;DHT22;5273;51.290;6.918;2022-12-18T00:42:38;-2.50;99.90
10451;DHT22;5273;51.290;6.918;2022-12-18T00:45:28;-2.50;99.90
10451;DHT22;5273;51.290;6.918;2022-12-18T00:47:56;-2.50;99.90
10451;DHT22;5273;51.290;6.918;2022-12-18T00:50:24;-2.50;99.90
10451;DHT22;5273;51.290;6.918;2022-12-18T00:52:51;-2.50;99.90
10451;DHT22;5273;51.290;6.918;2022-12-18T00:55:19;-2.50;99.90
10451;DHT22;5273;51.290;6.918;2022-12-18T00:57:46;-2.50;99.90
10451;DHT22;5273;51.290;6.918;2022-12-18T01:00:14;-2.60;99.90
10451;DHT22;5273;51.290;6.918;2022-12-18T01:02:41;-2.50;99.90
10451;DHT22;5273;51.290;6.918;2022-12-18T01:05:10;-2.50;99.90
10451;DHT22;5273;51.290;6.918;2022-12-18T01:07:38;-2.60;99.90
10451;DHT22;5273;51.290;6.918;2022-12-18T01:10:06;-1.90;99.90
10451;DHT22;5273;51.290;6.918;2022-12-18T01:12:35;-2.50;99.90
10451;DHT22;5273;51.290;6.918;2022-12-18T01:15:03;-2.60;99.90
10451;DHT22;5273;51.290;6.918;2022-12-18T01:17:30;-2.60;99.90
10451;DHT22;5273;51.290;6.918;2022-12-18T01:19:57;-2.60;99.90
10451;DHT22;5273;51.290;6.918;2022-12-18T01:22:24;-2.60;99.90
10451;DHT22;5273;51.290;6.918;2022-12-18T01:24:51;-2.70;99.90
10451;DHT22;5273;51.290;6.918;2022-12-18T01:27:17;-2.60;99.90
10451;DHT22;5273;51.290;6.918;2022-12-18T01:29:46;-1.60;99.90
10451;DHT22;5273;51.290;6.918;2022-12-18T01:32:12;-2.70;99.90
10451;DHT22;5273;51.290;6.918;2022-12-18T01:34:39;-1.30;99.90
10451;DHT22;5273;51.290;6.918;2022-12-18T01:37:06;-2.60;99.90
10451;DHT22;5273;51.290;6.918;2022-12-18T01:39:33;-2.60;99.90
10451;DHT22;5273;51.290;6.918;2022-12-18T01:42:00;-2.50;99.90
10451;DHT22;5273;51.290;6.918;2022-12-18T01:44:55;-2.50;99.90
10451;DHT22;5273;51.290;6.918;2022-12-18T01:47:25;-2.50;99.90
10451;DHT22;5273;51.290;6.918;2022-12-18T01:49:54;-2.50;99.90
10451;DHT22;5273;51.290;6.918;2022-12-18T01:52:22;-2.50;99.90
10451;DHT22;5273;51.290;6.918;2022-12-18T01:54:51;-2.50;99.90
10451;DHT22;5273;51.290;6.918;2022-12-18T01:57:19;-2.40;99.90
10451;DHT22;5273;51.290;6.918;2022-12-18T01:59:50;-2.50;99.90
10451;DHT22;5273;51.290;6.918;2022-12-18T02:02:20;-2.50;99.90
10451;DHT22;5273;51.290;6.918;2022-12-18T02:04:47;-2.50;99.90
10451;DHT22;5273;51.290;6.918;2022-12-18T02:07:19;-2.50;99.90
10451;DHT22;5273;51.290;6.918;2022-12-18T02:09:50;-2.50;99.90
10451;DHT22;5273;51.290;6.918;2022-12-18T02:12:19;-2.60;99.90
10451;DHT22;5273;51.290;6.918;2022-12-18T02:14:54;-2.60;99.90
10451;DHT22;5273;51.290;6.918;2022-12-18T02:17:29;-2.60;99.90
10451;DHT22;5273;51.290;6.918;2022-12-18T02:20:05;-2.60;99.90
10451;DHT22;5273;51.290;6.918;2022-12-18T02:22:43;-2.60;99.90
10451;DHT22;5273;51.290;6.918;2022-12-18T02:25:28;-2.50;99.90
10451;DHT22;5273;51.290;6.918;2022-12-18T02:27:59;-2.50;99.90
10451;DHT22;5273;51.290;6.918;2022-12-18T02:30:30;-2.50;99.90
10451;DHT22;5273;51.290;6.918;2022-12-18T02:32:59;-2.50;99.90
10451;DHT22;5273;51.290;6.918;2022-12-18T02:35:29;-2.40;99.90
10451;DHT22;5273;51.290;6.918;2022-12-18T02:37:57;-2.40;99.90
10451;DHT22;5273;51.290;6.918;2022-12-18T02:40:26;-2.40;99.90
10451;DHT22;5273;51.290;6.918;2022-12-18T02:42:54;-2.40;99.90
10451;DHT22;5273;51.290;6.918;2022-12-18T02:45:22;-2.30;99.90
10451;DHT22;5273;51.290;6.918;2022-12-18T02:47:49;-2.40;99.90
10451;DHT22;5273;51.290;6.918;2022-12-18T02:50:22;-2.40;99.90
10451;DHT22;5273;51.290;6.918;2022-12-18T02:52:56;-2.70;99.90
10451;DHT22;5273;51.290;6.918;2022-12-18T02:55:34;-2.40;99.90
10451;DHT22;5273;51.290;6.918;2022-12-18T02:58:08;-2.50;99.90
10451;DHT22;5273;51.290;6.918;2022-12-18T03:00:40;-2.50;99.90
10451;DHT22;5273;51.290;6.918;2022-12-18T03:03:11;-2.50;99.90
10451;DHT22;5273;51.290;6.918;2022-12-18T03:05:44;-2.50;99.90
10451;DHT22;5273;51.290;6.918;2022-12-18T03:08:19;-2.40;99.90
10451;DHT22;5273;51.290;6.918;2022-12-18T03:10:50;-2.40;99.90
10451;DHT22;5273;51.290;6.918;2022-12-18T03:13:22;-2.40;99.90
10451;DHT22;5273;51.290;6.918;2022-12-18T03:15:53;-2.40;99.90
10451;DHT22;5273;51.290;6.918;2022-12-18T03:18:24;-2.40;99.90
10451;DHT22;5273;51.290;6.918;2022-12-18T03:20:53;-2.40;99.90
10451;DHT22;5273;51.290;6.918;2022-12-18T03:23:26;-2.30;99.90
10451;DHT22;5273;51.290;6.918;2022-12-18T03:25:58;-2.30;99.90
10451;DHT22;5273;51.290;6.918;2022-12-18T03:28:27;-2.30;99.90
10451;DHT22;5273;51.290;6.918;2022-12-18T03:30:59;-2.30;99.90
10451;DHT22;5273;51.290;6.918;2022-12-18T03:33:29;-2.30;99.90
10451;DHT22;5273;51.290;6.918;2022-12-18T03:35:58;-2.30;99.90
10451;DHT22;5273;51.290;6.918;2022-12-18T03:38:25;-2.30;99.90
10451;DHT22;5273;51.290;6.918;2022-12-18T03:40:58;-2.30;99.90
10451;DHT22;5273;51.290;6.918;2022-12-18T03:43:35;-2.30;99.90
10451;DHT22;5273;51.290;6.918;2022-12-18T03:46:10;-2.30;99.90
10451;DHT22;5273;51.290;6.918;2022-12-18T03:48:43;-2.10;99.90
10451;DHT22;5273;51.290;6.918;2022-12-18T03:51:14;-2.30;99.90
10451;DHT22;5273;51.290;6.918;2022-12-18T03:53:48;-2.20;99.90
10451;DHT22;5273;51.290;6.918;2022-12-18T03:56:17;-2.30;99.90
10451;DHT22;5273;51.290;6.918;2022-12-18T03:58:45;-2.20;99.90
10451;DHT22;5273;51.290;6.918;2022-12-18T04:01:15;-2.20;99.90
10451;DHT22;5273;51.290;6.918;2022-12-18T04:03:44;-2.20;99.90
10451;DHT22;5273;51.290;6.918;2022-12-18T04:06:12;-2.20;99.90
10451;DHT22;5273;51.290;6.918;2022-12-18T04:08:41;-2.10;99.90
10451;DHT22;5273;51.290;6.918;2022-12-18T04:11:08;-2.10;99.90
10451;DHT22;5273;51.290;6.918;2022-12-18T04:13:36;-2.10;99.90
10451;DHT22;5273;51.290;6.918;2022-12-18T04:16:03;-2.10;99.90
10451;DHT22;5273;51.290;6.918;2022-12-18T04:18:32;-2.10;99.90
10451;DHT22;5273;51.290;6.918;2022-12-18T04:20:59;-2.00;99.90
10451;DHT22;5273;51.290;6.918;2022-12-18T04:23:25;-2.00;99.90
10451;DHT22;5273;51.290;6.918;2022-12-18T04:25:52;-2.00;99.90
10451;DHT22;5273;51.290;6.918;2022-12-18T04:28:19;-2.10;99.90
10451;DHT22;5273;51.290;6.918;2022-12-18T04:30:49;-2.00;99.90
10451;DHT22;5273;51.290;6.918;2022-12-18T04:33:19;-2.00;99.90
10451;DHT22;5273;51.290;6.918;2022-12-18T04:35:47;-1.90;99.90
10451;DHT22;5273;51.290;6.918;2022-12-18T04:38:14;-2.00;99.90
10451;DHT22;5273;51.290;6.918;2022-12-18T04:40:41;-2.00;99.90
10451;DHT22;5273;51.290;6.918;2022-12-18T04:43:07;-1.90;99.90
10451;DHT22;5273;51.290;6.918;2022-12-18T04:45:34;-2.00;99.90
10451;DHT22;5273;51.290;6.918;2022-12-18T04:48:02;-2.00;99.90
10451;DHT22;5273;51.290;6.918;2022-12-18T04:50:29;-2.80;99.90
10451;DHT22;5273;51.290;6.918;2022-12-18T04:52:58;-2.10;99.90
10451;DHT22;5273;51.290;6.918;2022-12-18T04:55:25;-2.00;99.90
10451;DHT22;5273;51.290;6.918;2022-12-18T04:57:52;-2.00;99.90
10451;DHT22;5273;51.290;6.918;2022-12-18T05:00:19;-2.00;99.90
10451;DHT22;5273;51.290;6.918;2022-12-18T05:02:46;-2.00;99.90
10451;DHT22;5273;51.290;6.918;2022-12-18T05:05:13;-2.00;99.90
10451;DHT22;5273;51.290;6.918;2022-12-18T05:07:39;-2.00;99.90
10451;DHT22;5273;51.290;6.918;2022-12-18T05:10:08;-1.90;99.90
10451;DHT22;5273;51.290;6.918;2022-12-18T05:12:35;-1.90;99.90
10451;DHT22;5273;51.290;6.918;2022-12-18T05:15:22;-1.80;99.90
10451;DHT22;5273;51.290;6.918;2022-12-18T05:17:49;-1.90;99.90
10451;DHT22;5273;51.290;6.918;2022-12-18T05:20:16;-1.80;99.90
10451;DHT22;5273;51.290;6.918;2022-12-18T05:22:43;-1.80;99.90
10451;DHT22;5273;51.290;6.918;2022-12-18T05:25:11;-2.20;99.80
10451;DHT22;5273;51.290;6.918;2022-12-18T05:27:38;-1.80;99.90
10451;DHT22;5273;51.290;6.918;2022-12-18T05:30:06;-1.80;99.90
10451;DHT22;5273;51.290;6.918;2022-12-18T05:32:33;-1.80;99.80
10451;DHT22;5273;51.290;6.918;2022-12-18T05:35:00;-1.70;99.70
10451;DHT22;5273;51.290;6.918;2022-12-18T05:37:27;-1.80;99.80
10451;DHT22;5273;51.290;6.918;2022-12-18T05:39:53;-1.70;99.70
10451;DHT22;5273;51.290;6.918;2022-12-18T05:42:21;-1.70;99.60
10451;DHT22;5273;51.290;6.918;2022-12-18T05:44:48;-1.70;99.60
10451;DHT22;5273;51.290;6.918;2022-12-18T05:47:15;-1.70;99.60
10451;DHT22;5273;51.290;6.918;2022-12-18T05:49:42;-1.70;99.60
10451;DHT22;5273;51.290;6.918;2022-12-18T05:52:09;-1.70;99.50
10451;DHT22;5273;51.290;6.918;2022-12-18T05:54:35;-1.70;99.30
10451;DHT22;5273;51.290;6.918;2022-12-18T05:57:02;-1.60;99.10
10451;DHT22;5273;51.290;6.918;2022-12-18T05:59:30;-1.60;98.70
10451;DHT22;5273;51.290;6.918;2022-12-18T06:01:57;-1.50;98.60
10451;DHT22;5273;51.290;6.918;2022-12-18T06:04:26;-1.50;98.50
10451;DHT22;5273;51.290;6.918;2022-12-18T06:06:53;-1.50;98.30
10451;DHT22;5273;51.290;6.918;2022-12-18T06:09:20;-1.40;98.40
10451;DHT22;5273;51.290;6.918;2022-12-18T06:11:46;-1.50;98.30
10451;DHT22;5273;51.290;6.918;2022-12-18T06:14:13;-1.50;98.40
10451;DHT22;5273;51.290;6.918;2022-12-18T06:16:44;-1.60;98.40
10451;DHT22;5273;51.290;6.918;2022-12-18T06:19:14;-1.60;98.50
10451;DHT22;5273;51.290;6.918;2022-12-18T06:21:41;-1.60;98.50
10451;DHT22;5273;51.290;6.918;2022-12-18T06:24:08;-1.70;98.40
10451;DHT22;5273;51.290;6.918;2022-12-18T06:26:37;-1.70;98.50
10451;DHT22;5273;51.290;6.918;2022-12-18T06:29:05;-1.70;98.40
10451;DHT22;5273;51.290;6.918;2022-12-18T06:31:32;-1.30;98.70
10451;DHT22;5273;51.290;6.918;2022-12-18T06:34:02;-1.80;98.40
10451;DHT22;5273;51.290;6.918;2022-12-18T06:36:29;-1.80;98.50
10451;DHT22;5273;51.290;6.918;2022-12-18T06:38:56;-1.80;98.60
10451;DHT22;5273;51.290;6.918;2022-12-18T06:41:23;-1.80;98.60
10451;DHT22;5273;51.290;6.918;2022-12-18T06:43:50;-1.80;98.70
10451;DHT22;5273;51.290;6.918;2022-12-18T06:46:17;-1.80;98.60
10451;DHT22;5273;51.290;6.918;2022-12-18T06:48:47;-1.80;98.60
10451;DHT22;5273;51.290;6.918;2022-12-18T06:51:17;-1.80;98.60
10451;DHT22;5273;51.290;6.918;2022-12-18T06:53:44;-1.80;98.40
10451;DHT22;5273;51.290;6.918;2022-12-18T06:56:11;-1.80;98.30
10451;DHT22;5273;51.290;6.918;2022-12-18T06:58:38;-1.70;98.30
10451;DHT22;5273;51.290;6.918;2022-12-18T07:01:07;-1.70;98.10
10451;DHT22;5273;51.290;6.918;2022-12-18T07:03:34;-1.70;98.20
10451;DHT22;5273;51.290;6.918;2022-12-18T07:06:01;-1.20;98.10
10451;DHT22;5273;51.290;6.918;2022-12-18T07:08:30;-1.60;97.80
10451;DHT22;5273;51.290;6.918;2022-12-18T07:10:57;-1.60;97.60
10451;DHT22;5273;51.290;6.918;2022-12-18T07:13:24;-1.50;97.70
10451;DHT22;5273;51.290;6.918;2022-12-18T07:15:51;-1.50;97.30
10451;DHT22;5273;51.290;6.918;2022-12-18T07:18:17;-1.40;97.10
10451;DHT22;5273;51.290;6.918;2022-12-18T07:20:45;-1.30;96.70
10451;DHT22;5273;51.290;6.918;2022-12-18T07:23:11;-1.20;96.60
10451;DHT22;5273;51.290;6.918;2022-12-18T07:25:39;-1.20;96.60
10451;DHT22;5273;51.290;6.918;2022-12-18T07:28:06;-1.20;96.40
10451;DHT22;5273;51.290;6.918;2022-12-18T07:30:33;-1.20;96.40
10451;DHT22;5273;51.290;6.918;2022-12-18T07:33:00;-1.20;96.40
10451;DHT22;5273;51.290;6.918;2022-12-18T07:35:27;-1.20;96.70
10451;DHT22;5273;51.290;6.918;2022-12-18T07:37:53;0.00;96.80
10451;DHT22;5273;51.290;6.918;2022-12-18T07:40:20;-1.10;96.40
10451;DHT22;5273;51.290;6.918;2022-12-18T07:42:48;-1.10;96.10
10451;DHT22;5273;51.290;6.918;2022-12-18T07:45:15;-1.00;96.10
10451;DHT22;5273;51.290;6.918;2022-12-18T07:47:42;-0.70;95.90
10451;DHT22;5273;51.290;6.918;2022-12-18T07:50:09;-0.30;95.20
10451;DHT22;5273;51.290;6.918;2022-12-18T07:52:36;-0.10;93.80
10451;DHT22;5273;51.290;6.918;2022-12-18T07:55:03;0.00;93.60
10451;DHT22;5273;51.290;6.918;2022-12-18T07:57:30;0.20;93.30
10451;DHT22;5273;51.290;6.918;2022-12-18T07:59:58;0.70;93.10
10451;DHT22;5273;51.290;6.918;2022-12-18T08:02:25;1.20;91.40
10451;DHT22;5273;51.290;6.918;2022-12-18T08:04:51;1.60;90.60
10451;DHT22;5273;51.290;6.918;2022-12-18T08:07:18;1.90;88.70
10451;DHT22;5273;51.290;6.918;2022-12-18T08:09:45;2.90;86.60
10451;DHT22;5273;51.290;6.918;2022-12-18T08:12:11;2.60;84.90
10451;DHT22;5273;51.290;6.918;2022-12-18T08:14:38;3.00;82.10
10451;DHT22;5273;51.290;6.918;2022-12-18T08:17:06;3.30;80.40
10451;DHT22;5273;51.290;6.918;2022-12-18T08:19:33;3.50;77.10
10451;DHT22;5273;51.290;6.918;2022-12-18T08:22:00;3.70;76.30
10451;DHT22;5273;51.290;6.918;2022-12-18T08:24:27;3.50;73.40
10451;DHT22;5273;51.290;6.918;2022-12-18T08:26:54;2.80;75.00
10451;DHT22;5273;51.290;6.918;2022-12-18T08:29:22;2.40;76.50
10451;DHT22;5273;51.290;6.918;2022-12-18T08:31:49;2.60;76.90
10451;DHT22;5273;51.290;6.918;2022-12-18T08:34:17;2.80;77.40
10451;DHT22;5273;51.290;6.918;2022-12-18T08:36:44;3.30;74.80
10451;DHT22;5273;51.290;6.918;2022-12-18T08:39:11;3.60;72.60
10451;DHT22;5273;51.290;6.918;2022-12-18T08:41:37;3.70;72.60
10451;DHT22;5273;51.290;6.918;2022-12-18T08:44:04;3.60;71.30
10451;DHT22;5273;51.290;6.918;2022-12-18T08:46:48;3.70;71.00
10451;DHT22;5273;51.290;6.918;2022-12-18T08:49:17;4.80;70.40
10451;DHT22;5273;51.290;6.918;2022-12-18T08:51:43;3.90;68.60
10451;DHT22;5273;51.290;6.918;2022-12-18T08:54:11;3.90;68.60
10451;DHT22;5273;51.290;6.918;2022-12-18T08:56:38;4.20;68.60
10451;DHT22;5273;51.290;6.918;2022-12-18T08:59:05;4.60;66.90
10451;DHT22;5273;51.290;6.918;2022-12-18T09:01:32;4.90;64.30
10451;DHT22;5273;51.290;6.918;2022-12-18T09:03:58;4.70;64.10
10451;DHT22;5273;51.290;6.918;2022-12-18T09:06:26;4.70;63.90
10451;DHT22;5273;51.290;6.918;2022-12-18T09:08:53;4.80;63.80
10451;DHT22;5273;51.290;6.918;2022-12-18T09:11:21;4.80;61.30
10451;DHT22;5273;51.290;6.918;2022-12-18T09:13:49;4.70;62.30
10451;DHT22;5273;51.290;6.918;2022-12-18T09:16:16;4.70;62.70
10451;DHT22;5273;51.290;6.918;2022-12-18T09:18:43;4.70;62.00
10451;DHT22;5273;51.290;6.918;2022-12-18T09:21:12;4.60;62.10
10451;DHT22;5273;51.290;6.918;2022-12-18T09:23:40;4.70;61.00
10451;DHT22;5273;51.290;6.918;2022-12-18T09:26:07;4.60;61.50
10451;DHT22;5273;51.290;6.918;2022-12-18T09:28:34;4.70;60.20
10451;DHT22;5273;51.290;6.918;2022-12-18T09:31:04;4.80;59.70
10451;DHT22;5273;51.290;6.918;2022-12-18T09:33:32;5.20;60.20
10451;DHT22;5273;51.290;6.918;2022-12-18T09:36:00;5.70;58.10
10451;DHT22;5273;51.290;6.918;2022-12-18T09:38:27;5.90;57.10
10451;DHT22;5273;51.290;6.918;2022-12-18T09:40:59;5.80;57.90
10451;DHT22;5273;51.290;6.918;2022-12-18T09:43:29;6.10;56.80
10451;DHT22;5273;51.290;6.918;2022-12-18T09:45:59;6.20;55.50
10451;DHT22;5273;51.290;6.918;2022-12-18T09:48:31;5.90;54.60
10451;DHT22;5273;51.290;6.918;2022-12-18T09:51:02;5.70;55.30
10451;DHT22;5273;51.290;6.918;2022-12-18T09:53:33;5.30;56.00
10451;DHT22;5273;51.290;6.918;2022-12-18T09:56:04;5.00;57.20
10451;DHT22;5273;51.290;6.918;2022-12-18T09:58:34;4.70;57.60
10451;DHT22;5273;51.290;6.918;2022-12-18T10:01:09;4.30;58.90
10451;DHT22;5273;51.290;6.918;2022-12-18T10:03:37;4.00;60.10
10451;DHT22;5273;51.290;6.918;2022-12-18T10:06:08;3.70;61.20
10451;DHT22;5273;51.290;6.918;2022-12-18T10:08:43;3.50;62.50
10451;DHT22;5273;51.290;6.918;2022-12-18T10:11:26;4.40;63.50
10451;DHT22;5273;51.290;6.918;2022-12-18T10:13:58;3.20;64.00
10451;DHT22;5273;51.290;6.918;2022-12-18T10:16:34;4.60;67.10
10451;DHT22;5273;51.290;6.918;2022-12-18T10:22:03;3.00;65.40
10451;DHT22;5273;51.290;6.918;2022-12-18T10:24:40;3.30;65.60
10451;DHT22;5273;51.290;6.918;2022-12-18T10:27:14;3.20;64.90
10451;DHT22;5273;51.290;6.918;2022-12-18T10:29:42;3.10;64.50
10451;DHT22;5273;51.290;6.918;2022-12-18T10:32:14;3.10;64.90
10451;DHT22;5273;51.290;6.918;2022-12-18T10:34:41;3.10;67.20
10451;DHT22;5273;51.290;6.918;2022-12-18T10:37:12;3.30;65.20
10451;DHT22;5273;51.290;6.918;2022-12-18T10:39:41;3.30;65.40
10451;DHT22;5273;51.290;6.918;2022-12-18T10:42:15;3.50;66.60
10451;DHT22;5273;51.290;6.918;2022-12-18T10:44:42;3.60;65.00
10451;DHT22;5273;51.290;6.918;2022-12-18T10:47:14;3.80;66.10
10451;DHT22;5273;51.290;6.918;2022-12-18T10:49:47;3.90;65.50
10451;DHT22;5273;51.290;6.918;2022-12-18T10:52:18;3.70;64.20
10451;DHT22;5273;51.290;6.918;2022-12-18T10:54:49;3.50;64.90
10451;DHT22;5273;51.290;6.918;2022-12-18T10:57:34;3.40;67.40
10451;DHT22;5273;51.290;6.918;2022-12-18T11:00:22;3.20;66.80
10451;DHT22;5273;51.290;6.918;2022-12-18T11:02:49;3.10;68.40
10451;DHT22;5273;51.290;6.918;2022-12-18T11:05:25;3.00;67.20
10451;DHT22;5273;51.290;6.918;2022-12-18T11:07:52;2.80;69.00
10451;DHT22;5273;51.290;6.918;2022-12-18T11:10:21;2.60;68.60
10451;DHT22;5273;51.290;6.918;2022-12-18T11:12:50;2.60;70.10
10451;DHT22;5273;51.290;6.918;2022-12-18T11:15:19;2.80;71.30
10451;DHT22;5273;51.290;6.918;2022-12-18T11:17:48;2.50;71.40
10451;DHT22;5273;51.290;6.918;2022-12-18T11:20:31;2.50;71.20
10451;DHT22;5273;51.290;6.918;2022-12-18T11:23:00;2.50;71.30
10451;DHT22;5273;51.290;6.918;2022-12-18T11:25:31;2.50;72.40
10451;DHT22;5273;51.290;6.918;2022-12-18T11:28:01;2.50;72.50
10451;DHT22;5273;51.290;6.918;2022-12-18T11:30:31;2.50;73.20
10451;DHT22;5273;51.290;6.918;2022-12-18T11:33:03;2.50;72.30
10451;DHT22;5273;51.290;6.918;2022-12-18T11:35:42;3.60;73.30
10451;DHT22;5273;51.290;6.918;2022-12-18T11:38:17;2.60;73.40
10451;DHT22;5273;51.290;6.918;2022-12-18T11:40:49;2.50;72.30
10451;DHT22;5273;51.290;6.918;2022-12-18T11:43:21;2.50;72.60
10451;DHT22;5273;51.290;6.918;2022-12-18T11:45:54;2.50;72.90
10451;DHT22;5273;51.290;6.918;2022-12-18T11:48:24;2.50;72.30
10451;DHT22;5273;51.290;6.918;2022-12-18T11:50:55;4.00;74.10
10451;DHT22;5273;51.290;6.918;2022-12-18T11:53:23;2.40;73.40
10451;DHT22;5273;51.290;6.918;2022-12-18T11:56:02;2.40;73.70
10451;DHT22;5273;51.290;6.918;2022-12-18T11:58:44;2.30;74.70
10451;DHT22;5273;51.290;6.918;2022-12-18T12:01:19;2.30;74.60
10451;DHT22;5273;51.290;6.918;2022-12-18T12:04:15;3.70;76.90
10451;DHT22;5273;51.290;6.918;2022-12-18T12:06:50;2.20;75.30
10451;DHT22;5273;51.290;6.918;2022-12-18T12:09:25;2.20;73.60
10451;DHT22;5273;51.290;6.918;2022-12-18T12:12:22;2.20;75.00
10451;DHT22;5273;51.290;6.918;2022-12-18T12:14:59;2.10;75.60
10451;DHT22;5273;51.290;6.918;2022-12-18T12:17:35;2.10;76.10
10451;DHT22;5273;51.290;6.918;2022-12-18T12:20:08;2.10;76.10
10451;DHT22;5273;51.290;6.918;2022-12-18T12:22:43;2.10;76.60
10451;DHT22;5273;51.290;6.918;2022-12-18T12:25:21;2.10;76.40
10451;DHT22;5273;51.290;6.918;2022-12-18T12:27:59;2.00;78.20
10451;DHT22;5273;51.290;6.918;2022-12-18T12:30:37;2.90;77.80
10451;DHT22;5273;51.290;6.918;2022-12-18T12:33:17;1.90;78.70
10451;DHT22;5273;51.290;6.918;2022-12-18T12:35:49;1.90;78.00
10451;DHT22;5273;51.290;6.918;2022-12-18T12:38:22;1.90;79.00
10451;DHT22;5273;51.290;6.918;2022-12-18T12:40:54;1.80;78.70
10451;DHT22;5273;51.290;6.918;2022-12-18T12:43:28;1.80;78.20
10451;DHT22;5273;51.290;6.918;2022-12-18T12:46:06;1.70;78.90
10451;DHT22;5273;51.290;6.918;2022-12-18T12:48:37;1.80;79.30
10451;DHT22;5273;51.290;6.918;2022-12-18T12:51:11;1.70;80.00
10451;DHT22;5273;51.290;6.918;2022-12-18T12:53:39;1.70;80.10
10451;DHT22;5273;51.290;6.918;2022-12-18T12:56:09;1.70;79.80
10451;DHT22;5273;51.290;6.918;2022-12-18T12:58:42;1.60;79.70
10451;DHT22;5273;51.290;6.918;2022-12-18T13:01:20;1.60;78.50
10451;DHT22;5273;51.290;6.918;2022-12-18T13:03:56;1.50;79.80
10451;DHT22;5273;51.290;6.918;2022-12-18T13:06:36;1.50;81.60
10451;DHT22;5273;51.290;6.918;2022-12-18T13:09:04;1.40;79.80
10451;DHT22;5273;51.290;6.918;2022-12-18T13:11:35;1.30;80.50
10451;DHT22;5273;51.290;6.918;2022-12-18T13:14:22;1.40;80.00
10451;DHT22;5273;51.290;6.918;2022-12-18T13:16:51;0.40;79.40
10451;DHT22;5273;51.290;6.918;2022-12-18T13:19:22;1.20;81.70
10451;DHT22;5273;51.290;6.918;2022-12-18T13:21:54;1.20;82.30
10451;DHT22;5273;51.290;6.918;2022-12-18T13:24:25;1.20;82.10
10451;DHT22;5273;51.290;6.918;2022-12-18T13:26:52;1.20;81.50
10451;DHT22;5273;51.290;6.918;2022-12-18T13:29:49;1.20;82.10
10451;DHT22;5273;51.290;6.918;2022-12-18T13:32:23;1.20;81.00
10451;DHT22;5273;51.290;6.918;2022-12-18T13:37:53;1.20;82.30
10451;DHT22;5273;51.290;6.918;2022-12-18T13:40:53;1.10;83.20
10451;DHT22;5273;51.290;6.918;2022-12-18T13:43:30;1.60;84.00
10451;DHT22;5273;51.290;6.918;2022-12-18T13:46:04;1.10;82.90
10451;DHT22;5273;51.290;6.918;2022-12-18T13:48:34;1.10;83.80
10451;DHT22;5273;51.290;6.918;2022-12-18T13:51:05;1.00;83.60
10451;DHT22;5273;51.290;6.918;2022-12-18T13:53:35;1.00;83.90
10451;DHT22;5273;51.290;6.918;2022-12-18T13:56:05;1.00;84.20
10451;DHT22;5273;51.290;6.918;2022-12-18T13:58:32;1.10;84.20
10451;DHT22;5273;51.290;6.918;2022-12-18T14:00:59;1.00;82.00
10451;DHT22;5273;51.290;6.918;2022-12-18T14:03:29;1.00;82.90
10451;DHT22;5273;51.290;6.918;2022-12-18T14:06:00;1.00;83.50
10451;DHT22;5273;51.290;6.918;2022-12-18T14:08:33;1.00;83.10
10451;DHT22;5273;51.290;6.918;2022-12-18T14:11:01;1.00;82.50
10451;DHT22;5273;51.290;6.918;2022-12-18T14:13:31;1.90;84.20
10451;DHT22;5273;51.290;6.918;2022-12-18T14:16:00;1.00;81.90
10451;DHT22;5273;51.290;6.918;2022-12-18T14:18:33;1.00;82.30
10451;DHT22;5273;51.290;6.918;2022-12-18T14:21:04;1.00;82.80
10451;DHT22;5273;51.290;6.918;2022-12-18T14:23:34;1.00;82.60
10451;DHT22;5273;51.290;6.918;2022-12-18T14:26:02;1.00;82.60
10451;DHT22;5273;51.290;6.918;2022-12-18T14:28:29;0.90;82.20
10451;DHT22;5273;51.290;6.918;2022-12-18T14:30:56;1.10;82.60
10451;DHT22;5273;51.290;6.918;2022-12-18T14:33:24;0.90;83.00
10451;DHT22;5273;51.290;6.918;2022-12-18T14:35:55;0.90;83.60
10451;DHT22;5273;51.290;6.918;2022-12-18T14:38:28;0.90;83.10
10451;DHT22;5273;51.290;6.918;2022-12-18T14:41:01;0.80;83.30
10451;DHT22;5273;51.290;6.918;2022-12-18T14:43:29;0.80;83.50
10451;DHT22;5273;51.290;6.918;2022-12-18T14:45:58;0.80;84.00
10451;DHT22;5273;51.290;6.918;2022-12-18T14:48:34;0.80;83.40
10451;DHT22;5273;51.290;6.918;2022-12-18T14:51:03;0.90;84.00
10451;DHT22;5273;51.290;6.918;2022-12-18T14:53:36;0.80;83.30
10451;DHT22;5273;51.290;6.918;2022-12-18T14:56:14;1.10;83.80
10451;DHT22;5273;51.290;6.918;2022-12-18T14:58:45;0.80;83.30
10451;DHT22;5273;51.290;6.918;2022-12-18T15:01:19;0.80;83.50
10451;DHT22;5273;51.290;6.918;2022-12-18T15:03:46;0.70;83.00
10451;DHT22;5273;51.290;6.918;2022-12-18T15:06:17;0.80;82.30
10451;DHT22;5273;51.290;6.918;2022-12-18T15:08:45;0.80;82.30
10451;DHT22;5273;51.290;6.918;2022-12-18T15:11:27;0.70;82.60
10451;DHT22;5273;51.290;6.918;2022-12-18T15:13:56;2.00;83.60
10451;DHT22;5273;51.290;6.918;2022-12-18T15:16:23;0.80;82.60
10451;DHT22;5273;51.290;6.918;2022-12-18T15:18:51;0.80;82.30
10451;DHT22;5273;51.290;6.918;2022-12-18T15:21:19;0.70;82.20
10451;DHT22;5273;51.290;6.918;2022-12-18T15:23:49;0.70;83.20
10451;DHT22;5273;51.290;6.918;2022-12-18T15:26:18;0.70;83.40
10451;DHT22;5273;51.290;6.918;2022-12-18T15:28:47;0.70;83.10
10451;DHT22;5273;51.290;6.918;2022-12-18T15:31:39;0.60;83.70
10451;DHT22;5273;51.290;6.918;2022-12-18T15:34:13;0.60;83.70
10451;DHT22;5273;51.290;6.918;2022-12-18T15:36:45;0.60;84.00
10451;DHT22;5273;51.290;6.918;2022-12-18T15:39:13;0.60;84.10
10451;DHT22;5273;51.290;6.918;2022-12-18T15:41:40;0.60;84.50
10451;DHT22;5273;51.290;6.918;2022-12-18T15:44:27;0.60;84.60
10451;DHT22;5273;51.290;6.918;2022-12-18T15:46:56;0.60;85.00
10451;DHT22;5273;51.290;6.918;2022-12-18T15:49:23;0.50;85.60
10451;DHT22;5273;51.290;6.918;2022-12-18T15:51:52;0.50;85.30
10451;DHT22;5273;51.290;6.918;2022-12-18T15:54:20;0.50;85.50
10451;DHT22;5273;51.290;6.918;2022-12-18T15:57:09;0.50;86.10
10451;DHT22;5273;51.290;6.918;2022-12-18T15:59:50;0.40;85.90
10451;DHT22;5273;51.290;6.918;2022-12-18T16:02:19;-0.90;85.70
10451;DHT22;5273;51.290;6.918;2022-12-18T16:04:48;0.40;87.10
10451;DHT22;5273;51.290;6.918;2022-12-18T16:07:15;0.40;86.60
10451;DHT22;5273;51.290;6.918;2022-12-18T16:09:43;0.40;87.20
10451;DHT22;5273;51.290;6.918;2022-12-18T16:12:16;0.40;87.90
10451;DHT22;5273;51.290;6.918;2022-12-18T16:14:43;1.30;89.20
10451;DHT22;5273;51.290;6.918;2022-12-18T16:17:12;0.40;89.10
10451;DHT22;5273;51.290;6.918;2022-12-18T16:19:46;0.40;88.90